Time;durP1;ratioP1;P1;durP2;ratioP2;P2;SDS_P1;SDS_P2;PMS_P1;PMS_P2;Temp;Humidity;BMP_temperature;BMP_pressure;BME280_temperature;BME280_humidity;BME280_pressure;Samples;Min_cycle;Max_cycle;Signal;HPM_P1;HPM_P2
2022/03/14 00:00:30;;;;;;;3.38;1.35;;;;;;;;;;4997993;28;20054;-56
2022/03/14 00:02:56;;;;;;;3.42;1.48;;;;;;;;;;4995712;28;20046;-55
2022/03/14 00:05:24;;;;;;;3.65;1.55;;;;;;;;;;4995100;28;20041;-57
2022/03/14 00:07:50;;;;;;;5.57;1.30;;;;;;;;;;4997197;28;20893;-56
2022/03/14 00:10:16;;;;;;;3.80;1.63;;;;;;;;;;4996380;28;20042;-56
2022/03/14 00:12:43;;;;;;;15.70;6.55;;;;;;;;;;4996263;28;20068;-55
2022/03/14 00:15:13;;;;;;;8.52;3.30;;;;;;;;;;4995034;28;20058;-54
2022/03/14 00:17:45;;;;;;;5.35;2.33;;;;;;;;;;4993880;28;20030;-55
2022/03/14 00:20:13;;;;;;;14.13;6.75;;;;;;;;;;4995850;28;20072;-56
2022/03/14 00:22:40;;;;;;;12.10;5.75;;;;;;;;;;4994973;28;20057;-53
2022/03/14 00:25:07;;;;;;;4.90;2.85;;;;;;;;;;5003193;28;20407;-56
2022/03/14 00:27:36;;;;;;;8.90;4.72;;;;;;;;;;4993334;28;20042;-57
2022/03/14 00:30:06;;;;;;;7.03;2.55;;;;;;;;;;4994884;28;20151;-56
2022/03/14 00:32:32;;;;;;;4.32;1.95;;;;;;;;;;4999396;28;20030;-54
2022/03/14 00:34:58;;;;;;;3.00;1.40;;;;;;;;;;4999078;28;20061;-56
2022/03/14 00:37:24;;;;;;;3.45;1.70;;;;;;;;;;4996922;28;20042;-56
2022/03/14 00:39:52;;;;;;;3.85;1.75;;;;;;;;;;4998749;28;20126;-56
2022/03/14 00:42:21;;;;;;;3.72;1.50;;;;;;;;;;5000598;28;20507;-56
2022/03/14 00:44:47;;;;;;;3.65;1.70;;;;;;;;;;4997618;28;20648;-55
2022/03/14 00:47:13;;;;;;;3.95;1.92;;;;;;;;;;4998977;28;20042;-57
2022/03/14 00:49:40;;;;;;;3.92;1.60;;;;;;;;;;4998610;28;20041;-56
2022/03/14 00:52:06;;;;;;;4.50;1.80;;;;;;;;;;4998861;28;20038;-56
2022/03/14 00:54:31;;;;;;;3.25;1.50;;;;;;;;;;4999120;28;20410;-56
2022/03/14 00:56:57;;;;;;;3.47;1.73;;;;;;;;;;4997063;28;20038;-56
2022/03/14 00:59:24;;;;;;;4.57;1.83;;;;;;;;;;4996995;28;20133;-56
2022/03/14 01:01:51;;;;;;;4.20;1.73;;;;;;;;;;4998487;28;20065;-53
2022/03/14 01:04:17;;;;;;;3.88;1.80;;;;;;;;;;5028103;28;20557;-57
2022/03/14 01:06:43;;;;;;;4.55;1.50;;;;;;;;;;4995674;28;20049;-56
2022/03/14 01:09:11;;;;;;;4.13;1.75;;;;;;;;;;4998303;28;20444;-55
2022/03/14 01:11:39;;;;;;;3.40;1.63;;;;;;;;;;4993458;28;20439;-56
2022/03/14 01:14:05;;;;;;;4.88;2.28;;;;;;;;;;4999250;28;20137;-56
2022/03/14 01:16:31;;;;;;;3.28;1.55;;;;;;;;;;4997732;28;20041;-56
2022/03/14 01:18:58;;;;;;;3.58;1.90;;;;;;;;;;4997654;28;20041;-56
2022/03/14 01:21:24;;;;;;;7.82;4.18;;;;;;;;;;5000476;28;20169;-57
2022/03/14 01:23:50;;;;;;;4.43;1.90;;;;;;;;;;5001383;28;20057;-54
2022/03/14 01:26:17;;;;;;;3.55;1.55;;;;;;;;;;4999053;28;20117;-56
2022/03/14 01:28:43;;;;;;;4.45;1.77;;;;;;;;;;5027425;28;20049;-55
2022/03/14 01:31:28;;;;;;;6.10;1.83;;;;;;;;;;4998551;28;20046;-57
2022/03/14 01:33:54;;;;;;;4.30;2.25;;;;;;;;;;5000980;28;20045;-57
2022/03/14 01:36:20;;;;;;;3.72;1.90;;;;;;;;;;4999025;28;20081;-56
2022/03/14 01:38:46;;;;;;;4.38;2.13;;;;;;;;;;5000033;28;20030;-54
2022/03/14 01:41:15;;;;;;;4.03;2.13;;;;;;;;;;5001329;28;20049;-57
2022/03/14 01:43:41;;;;;;;3.53;1.92;;;;;;;;;;4998545;28;20042;-57
2022/03/14 01:46:07;;;;;;;5.10;2.40;;;;;;;;;;4999550;28;20080;-56
2022/03/14 01:48:33;;;;;;;4.65;1.90;;;;;;;;;;5001243;28;20072;-56
2022/03/14 01:50:59;;;;;;;6.47;3.22;;;;;;;;;;5000382;28;20042;-53
2022/03/14 01:53:26;;;;;;;8.55;2.88;;;;;;;;;;4999487;28;20038;-56
2022/03/14 01:55:52;;;;;;;7.57;2.50;;;;;;;;;;5000686;28;20232;-54
2022/03/14 01:58:18;;;;;;;6.13;1.90;;;;;;;;;;4998478;28;20068;-56
2022/03/14 02:00:44;;;;;;;5.07;2.17;;;;;;;;;;4999964;28;20402;-56
2022/03/14 02:03:10;;;;;;;3.47;1.80;;;;;;;;;;4999922;28;20042;-57
2022/03/14 02:05:37;;;;;;;4.15;2.00;;;;;;;;;;4999259;28;20072;-57
2022/03/14 02:08:07;;;;;;;4.00;1.92;;;;;;;;;;4999300;28;20046;-57
2022/03/14 02:10:34;;;;;;;3.35;1.65;;;;;;;;;;4995469;28;20229;-55
2022/03/14 02:13:06;;;;;;;4.20;2.10;;;;;;;;;;4998737;28;20065;-57
2022/03/14 02:15:32;;;;;;;4.28;2.17;;;;;;;;;;4998294;28;20052;-56
2022/03/14 02:17:58;;;;;;;4.00;2.33;;;;;;;;;;4999098;28;20037;-56
2022/03/14 02:20:24;;;;;;;5.10;2.10;;;;;;;;;;4995326;28;20049;-53
2022/03/14 02:22:50;;;;;;;4.75;2.30;;;;;;;;;;4997678;28;20142;-55
2022/03/14 02:25:16;;;;;;;4.00;2.35;;;;;;;;;;4999960;28;20045;-55
2022/03/14 02:27:42;;;;;;;6.75;2.35;;;;;;;;;;4996856;28;20453;-54
2022/03/14 02:30:08;;;;;;;4.43;2.35;;;;;;;;;;4999314;28;20041;-54
2022/03/14 02:32:38;;;;;;;4.07;2.20;;;;;;;;;;5000095;28;20083;-55
2022/03/14 02:35:05;;;;;;;3.75;2.03;;;;;;;;;;4993609;28;20054;-55
2022/03/14 02:37:31;;;;;;;4.00;2.13;;;;;;;;;;4998764;28;20080;-54
2022/03/14 02:39:56;;;;;;;10.60;3.30;;;;;;;;;;4998282;28;20037;-58
2022/03/14 02:42:22;;;;;;;5.40;2.67;;;;;;;;;;4995096;28;20053;-55
2022/03/14 02:44:48;;;;;;;4.47;1.98;;;;;;;;;;4998066;28;20076;-58
2022/03/14 02:47:14;;;;;;;4.95;2.40;;;;;;;;;;4996691;28;20049;-56
2022/03/14 02:49:40;;;;;;;3.67;1.88;;;;;;;;;;4997651;28;20120;-57
2022/03/14 02:52:06;;;;;;;7.40;2.67;;;;;;;;;;4998487;28;20042;-56
2022/03/14 02:54:32;;;;;;;5.20;2.42;;;;;;;;;;4995880;28;20042;-56
2022/03/14 02:56:58;;;;;;;5.35;2.90;;;;;;;;;;4995427;28;20052;-57
2022/03/14 02:59:26;;;;;;;5.30;2.45;;;;;;;;;;4998408;28;20521;-56
2022/03/14 03:01:52;;;;;;;4.65;2.63;;;;;;;;;;4997926;28;20047;-57
2022/03/14 03:04:18;;;;;;;5.22;2.63;;;;;;;;;;4995714;28;20034;-56
2022/03/14 03:06:45;;;;;;;7.90;2.95;;;;;;;;;;4995528;28;20102;-56
2022/03/14 03:09:11;;;;;;;4.70;2.90;;;;;;;;;;4994840;28;20092;-56
2022/03/14 03:11:37;;;;;;;7.88;2.88;;;;;;;;;;4995376;28;20918;-55
2022/03/14 03:14:03;;;;;;;4.93;2.65;;;;;;;;;;4996673;28;20046;-55
2022/03/14 03:16:30;;;;;;;4.45;2.42;;;;;;;;;;5026019;28;20141;-56
2022/03/14 03:18:57;;;;;;;5.65;2.63;;;;;;;;;;4996525;28;20042;-54
2022/03/14 03:21:23;;;;;;;4.50;2.63;;;;;;;;;;4994479;28;20057;-55
2022/03/14 03:23:49;;;;;;;6.68;2.90;;;;;;;;;;4993678;28;20065;-57
2022/03/14 03:26:15;;;;;;;10.45;3.13;;;;;;;;;;4996364;28;20068;-55
2022/03/14 03:28:42;;;;;;;6.65;2.92;;;;;;;;;;4996926;28;20049;-55
2022/03/14 03:31:13;;;;;;;4.60;3.10;;;;;;;;;;4996750;28;20104;-56
2022/03/14 03:33:39;;;;;;;6.00;3.30;;;;;;;;;;5000297;28;20049;-57
2022/03/14 03:36:07;;;;;;;7.07;4.90;;;;;;;;;;4999730;28;20049;-56
2022/03/14 03:38:33;;;;;;;7.10;5.05;;;;;;;;;;5013420;28;20113;-55
2022/03/14 03:40:59;;;;;;;6.63;4.15;;;;;;;;;;5001924;28;20171;-56
2022/03/14 03:43:25;;;;;;;8.23;4.90;;;;;;;;;;5001200;28;20053;-56
2022/03/14 03:45:51;;;;;;;8.52;5.03;;;;;;;;;;4997355;28;20105;-56
2022/03/14 03:48:17;;;;;;;10.20;6.97;;;;;;;;;;4999355;28;20034;-56
2022/03/14 03:50:44;;;;;;;7.82;5.63;;;;;;;;;;4999753;28;20045;-57
2022/03/14 03:53:10;;;;;;;8.40;5.45;;;;;;;;;;5000118;28;20054;-56
2022/03/14 03:55:35;;;;;;;9.73;6.50;;;;;;;;;;4995392;28;20066;-56
2022/03/14 03:58:01;;;;;;;10.38;6.28;;;;;;;;;;4998419;28;20151;-57
2022/03/14 04:00:27;;;;;;;9.15;5.72;;;;;;;;;;4997939;28;20046;-56
2022/03/14 04:02:53;;;;;;;10.60;6.47;;;;;;;;;;4998993;28;20038;-56
2022/03/14 04:05:20;;;;;;;10.95;7.10;;;;;;;;;;4997504;28;20038;-55
2022/03/14 04:07:46;;;;;;;9.30;6.53;;;;;;;;;;5000863;28;20051;-55
2022/03/14 04:10:15;;;;;;;9.80;6.35;;;;;;;;;;5002233;28;20042;-55
2022/03/14 04:12:43;;;;;;;7.72;5.32;;;;;;;;;;5001334;28;20043;-54
2022/03/14 04:15:09;;;;;;;11.35;7.00;;;;;;;;;;5001436;28;20574;-56
2022/03/14 04:17:40;;;;;;;10.20;7.20;;;;;;;;;;4999989;28;20077;-54
2022/03/14 04:20:07;;;;;;;12.10;7.82;;;;;;;;;;5002304;28;20038;-56
2022/03/14 04:22:35;;;;;;;11.30;7.30;;;;;;;;;;5013553;28;20115;-56
2022/03/14 04:25:02;;;;;;;9.73;6.82;;;;;;;;;;5000195;28;20034;-56
2022/03/14 04:27:28;;;;;;;11.07;7.00;;;;;;;;;;5014260;28;20030;-56
2022/03/14 04:29:53;;;;;;;14.32;7.45;;;;;;;;;;5001617;28;20060;-56
2022/03/14 04:32:19;;;;;;;13.85;8.43;;;;;;;;;;4999780;28;20065;-55
2022/03/14 04:34:45;;;;;;;11.55;7.20;;;;;;;;;;5000246;28;20045;-56
2022/03/14 04:37:12;;;;;;;11.05;7.18;;;;;;;;;;4998071;28;20070;-55
2022/03/14 04:39:40;;;;;;;10.68;6.85;;;;;;;;;;4997506;28;20108;-55
2022/03/14 04:42:06;;;;;;;10.50;7.32;;;;;;;;;;4999874;28;21783;-56
2022/03/14 04:44:33;;;;;;;11.95;6.65;;;;;;;;;;4998559;28;20754;-57
2022/03/14 04:46:59;;;;;;;10.73;7.10;;;;;;;;;;4996019;28;20037;-56
2022/03/14 04:49:26;;;;;;;10.07;6.25;;;;;;;;;;4999261;28;20053;-55
2022/03/14 04:51:54;;;;;;;11.63;6.47;;;;;;;;;;4997796;28;20042;-58
2022/03/14 04:54:20;;;;;;;11.55;6.88;;;;;;;;;;4998513;28;20054;-55
2022/03/14 04:56:46;;;;;;;9.07;5.63;;;;;;;;;;4997559;28;20173;-56
2022/03/14 04:59:11;;;;;;;9.13;5.80;;;;;;;;;;5000498;28;20129;-55
2022/03/14 05:01:40;;;;;;;9.25;5.65;;;;;;;;;;4999821;28;22298;-57
2022/03/14 05:04:05;;;;;;;8.20;5.88;;;;;;;;;;5001281;28;20099;-53
2022/03/14 05:06:32;;;;;;;8.73;5.45;;;;;;;;;;4999878;28;21074;-58
2022/03/14 05:08:58;;;;;;;9.05;6.15;;;;;;;;;;4998823;28;20095;-55
2022/03/14 05:11:25;;;;;;;9.35;6.03;;;;;;;;;;4997613;28;20535;-55
2022/03/14 05:13:51;;;;;;;10.55;6.03;;;;;;;;;;4999109;28;20056;-55
2022/03/14 05:16:17;;;;;;;10.65;6.68;;;;;;;;;;4997143;28;20543;-56
2022/03/14 05:18:46;;;;;;;10.10;6.22;;;;;;;;;;4997116;28;20048;-56
2022/03/14 05:21:13;;;;;;;9.38;6.07;;;;;;;;;;5000985;28;20053;-56
2022/03/14 05:23:39;;;;;;;9.13;6.38;;;;;;;;;;4998794;28;20452;-55
2022/03/14 05:26:05;;;;;;;11.50;6.20;;;;;;;;;;4997987;28;20041;-56
2022/03/14 05:28:32;;;;;;;9.48;5.82;;;;;;;;;;4997684;28;20045;-52
2022/03/14 05:30:57;;;;;;;9.60;5.63;;;;;;;;;;5000466;28;20034;-56
2022/03/14 05:33:23;;;;;;;9.75;6.07;;;;;;;;;;5001170;28;20044;-54
2022/03/14 05:35:50;;;;;;;10.77;6.13;;;;;;;;;;4997484;28;20065;-55
2022/03/14 05:38:16;;;;;;;10.70;6.65;;;;;;;;;;4999615;28;20106;-56
2022/03/14 05:40:42;;;;;;;9.38;6.20;;;;;;;;;;4999360;28;20037;-56
2022/03/14 05:43:09;;;;;;;10.13;6.68;;;;;;;;;;4999279;28;20046;-56
2022/03/14 05:45:35;;;;;;;10.98;5.95;;;;;;;;;;4996502;28;20038;-53
2022/03/14 05:48:01;;;;;;;11.32;6.32;;;;;;;;;;4999940;28;20119;-57
2022/03/14 05:50:27;;;;;;;9.98;5.47;;;;;;;;;;4996727;28;20081;-56
2022/03/14 05:52:54;;;;;;;9.32;5.97;;;;;;;;;;5000713;28;20432;-56
2022/03/14 05:55:20;;;;;;;9.65;5.60;;;;;;;;;;5031509;28;20171;-56
2022/03/14 05:57:46;;;;;;;8.70;6.10;;;;;;;;;;4997333;28;20777;-55
2022/03/14 06:00:13;;;;;;;9.93;5.90;;;;;;;;;;4999241;28;20164;-53
2022/03/14 06:02:44;;;;;;;11.43;7.30;;;;;;;;;;4998679;28;20103;-56
2022/03/14 06:05:10;;;;;;;10.35;6.15;;;;;;;;;;4997579;28;20046;-55
2022/03/14 06:07:36;;;;;;;10.20;6.85;;;;;;;;;;4997969;28;20045;-56
2022/03/14 06:10:02;;;;;;;11.13;6.90;;;;;;;;;;5014036;28;20325;-55
2022/03/14 06:12:29;;;;;;;12.73;7.30;;;;;;;;;;4996512;28;20083;-55
2022/03/14 06:14:56;;;;;;;11.70;7.50;;;;;;;;;;4997634;28;20105;-54
2022/03/14 06:17:22;;;;;;;11.02;7.07;;;;;;;;;;4994029;28;20030;-56
2022/03/14 06:19:49;;;;;;;10.65;7.00;;;;;;;;;;4997631;28;20061;-55
2022/03/14 06:22:16;;;;;;;9.60;6.30;;;;;;;;;;4998416;28;20045;-55
2022/03/14 06:24:41;;;;;;;9.02;5.97;;;;;;;;;;4995874;28;20148;-57
2022/03/14 06:27:07;;;;;;;8.90;5.15;;;;;;;;;;4996632;28;20500;-63
2022/03/14 06:29:33;;;;;;;9.70;5.88;;;;;;;;;;4997087;28;20842;-55
2022/03/14 06:31:59;;;;;;;10.57;6.28;;;;;;;;;;4997031;28;20064;-56
2022/03/14 06:34:26;;;;;;;11.90;5.45;;;;;;;;;;4998135;28;20049;-55
2022/03/14 06:36:52;;;;;;;9.98;5.60;;;;;;;;;;4995789;28;20124;-56
2022/03/14 06:39:18;;;;;;;7.72;4.50;;;;;;;;;;4998207;28;20049;-56
2022/03/14 06:41:44;;;;;;;8.45;5.20;;;;;;;;;;5005658;28;20038;-56
2022/03/14 06:44:12;;;;;;;7.35;4.78;;;;;;;;;;4999833;28;20044;-55
2022/03/14 06:46:38;;;;;;;8.35;4.90;;;;;;;;;;4994709;28;20050;-56
2022/03/14 06:49:04;;;;;;;7.90;5.38;;;;;;;;;;4995885;28;20042;-57
2022/03/14 06:51:30;;;;;;;10.25;6.20;;;;;;;;;;4998017;28;20140;-53
2022/03/14 06:53:56;;;;;;;16.02;6.95;;;;;;;;;;4996474;28;20658;-55
2022/03/14 06:56:22;;;;;;;12.13;6.50;;;;;;;;;;4996246;28;20037;-55
2022/03/14 06:58:48;;;;;;;12.40;7.40;;;;;;;;;;4997100;28;20042;-53
2022/03/14 07:01:14;;;;;;;177.90;23.45;;;;;;;;;;4995631;28;20354;-55
2022/03/14 07:03:40;;;;;;;200.68;25.95;;;;;;;;;;4998730;28;20051;-54
2022/03/14 07:06:06;;;;;;;163.70;23.45;;;;;;;;;;4996598;28;20029;-54
2022/03/14 07:08:32;;;;;;;257.42;29.13;;;;;;;;;;4995748;28;21202;-55
2022/03/14 07:10:58;;;;;;;166.10;20.60;;;;;;;;;;5002204;28;20396;-53
2022/03/14 07:13:23;;;;;;;199.32;24.63;;;;;;;;;;4995840;28;20038;-54
2022/03/14 07:15:49;;;;;;;185.00;22.65;;;;;;;;;;4995375;28;20530;-55
2022/03/14 07:18:15;;;;;;;226.18;24.67;;;;;;;;;;4996793;28;20968;-54
2022/03/14 07:20:41;;;;;;;176.40;24.20;;;;;;;;;;4996814;28;20034;-55
2022/03/14 07:23:07;;;;;;;198.30;24.90;;;;;;;;;;4999568;28;20388;-56
2022/03/14 07:25:37;;;;;;;94.88;20.35;;;;;;;;;;4996680;28;20061;-55
2022/03/14 07:28:12;;;;;;;225.55;29.02;;;;;;;;;;4996633;28;20078;-56
2022/03/14 07:30:41;;;;;;;132.32;21.38;;;;;;;;;;4997227;28;20049;-56
2022/03/14 07:33:07;;;;;;;200.60;24.55;;;;;;;;;;4998744;28;20042;-55
2022/03/14 07:35:35;;;;;;;123.53;22.70;;;;;;;;;;4996994;28;20045;-56
2022/03/14 07:38:01;;;;;;;167.20;22.63;;;;;;;;;;4996541;28;20037;-58
2022/03/14 07:40:27;;;;;;;191.40;25.45;;;;;;;;;;4995282;28;20041;-57
2022/03/14 07:42:56;;;;;;;124.28;22.80;;;;;;;;;;4996637;28;20061;-55
2022/03/14 07:45:26;;;;;;;230.77;24.67;;;;;;;;;;4996951;28;20046;-55
2022/03/14 07:47:53;;;;;;;245.57;28.83;;;;;;;;;;4995275;28;20610;-55
2022/03/14 07:50:19;;;;;;;170.88;22.50;;;;;;;;;;4996644;28;20042;-55
2022/03/14 07:52:45;;;;;;;245.57;29.25;;;;;;;;;;4996353;28;20121;-56
2022/03/14 07:55:11;;;;;;;158.20;23.90;;;;;;;;;;4996989;28;20050;-55
2022/03/14 07:57:38;;;;;;;232.18;27.17;;;;;;;;;;4996153;28;20048;-54
2022/03/14 08:00:05;;;;;;;146.90;23.00;;;;;;;;;;4999748;28;20042;-56
2022/03/14 08:02:31;;;;;;;171.80;24.02;;;;;;;;;;4997298;28;20128;-55
2022/03/14 08:04:56;;;;;;;129.02;22.48;;;;;;;;;;4996688;28;20034;-55
2022/03/14 08:07:23;;;;;;;167.60;25.15;;;;;;;;;;4994337;28;20052;-54
2022/03/14 08:09:49;;;;;;;243.02;27.33;;;;;;;;;;4996132;28;20084;-54
2022/03/14 08:12:15;;;;;;;144.88;24.55;;;;;;;;;;4995407;28;20057;-55
2022/03/14 08:14:41;;;;;;;259.38;30.17;;;;;;;;;;4993450;28;20874;-56
2022/03/14 08:17:07;;;;;;;172.35;26.73;;;;;;;;;;4996812;28;20097;-56
2022/03/14 08:19:34;;;;;;;129.00;23.45;;;;;;;;;;4993644;28;20034;-56
2022/03/14 08:22:01;;;;;;;76.88;20.30;;;;;;;;;;4999359;28;20037;-56
2022/03/14 08:24:27;;;;;;;152.27;24.02;;;;;;;;;;4997069;28;20044;-56
2022/03/14 08:26:53;;;;;;;98.35;22.30;;;;;;;;;;4995635;28;20038;-54
2022/03/14 08:29:19;;;;;;;142.98;22.98;;;;;;;;;;4995300;28;20073;-54
2022/03/14 08:31:45;;;;;;;107.82;24.55;;;;;;;;;;4998227;28;20041;-57
2022/03/14 08:34:12;;;;;;;116.55;23.55;;;;;;;;;;4997028;28;20061;-55
2022/03/14 08:36:40;;;;;;;149.43;26.20;;;;;;;;;;4992597;28;20142;-57
2022/03/14 08:39:06;;;;;;;92.60;23.55;;;;;;;;;;4998088;28;20034;-56
2022/03/14 08:41:36;;;;;;;99.85;20.08;;;;;;;;;;4998940;28;20030;-56
2022/03/14 08:44:06;;;;;;;102.22;23.67;;;;;;;;;;4994381;28;20045;-57
2022/03/14 08:46:32;;;;;;;119.18;23.35;;;;;;;;;;4994810;28;20046;-55
2022/03/14 08:48:58;;;;;;;106.47;22.00;;;;;;;;;;4997342;28;20573;-56
2022/03/14 08:51:25;;;;;;;134.90;22.38;;;;;;;;;;4996176;28;20042;-56
2022/03/14 08:53:51;;;;;;;94.80;20.77;;;;;;;;;;5002251;28;20034;-57
2022/03/14 08:56:17;;;;;;;121.13;23.88;;;;;;;;;;5002077;28;20041;-54
2022/03/14 08:58:43;;;;;;;138.80;24.85;;;;;;;;;;4999572;28;20100;-56
2022/03/14 09:01:10;;;;;;;101.03;23.00;;;;;;;;;;5003360;28;20038;-57
2022/03/14 09:03:37;;;;;;;91.03;21.60;;;;;;;;;;5002500;28;20096;-54
2022/03/14 09:06:04;;;;;;;107.28;24.15;;;;;;;;;;5000582;28;20060;-56
2022/03/14 09:08:30;;;;;;;103.82;23.48;;;;;;;;;;4999817;28;20050;-55
2022/03/14 09:10:56;;;;;;;81.28;21.85;;;;;;;;;;5004153;28;20137;-54
2022/03/14 09:13:23;;;;;;;56.25;19.00;;;;;;;;;;5004821;28;20153;-56
2022/03/14 09:15:50;;;;;;;66.75;20.10;;;;;;;;;;5005279;28;20060;-56
2022/03/14 09:18:16;;;;;;;63.80;19.20;;;;;;;;;;5005540;28;20033;-54
2022/03/14 09:20:42;;;;;;;63.63;20.67;;;;;;;;;;5006364;28;21886;-55
2022/03/14 09:23:08;;;;;;;53.80;19.10;;;;;;;;;;5005046;28;20042;-56
2022/03/14 09:25:34;;;;;;;52.42;19.58;;;;;;;;;;5004084;28;20837;-56
2022/03/14 09:28:01;;;;;;;57.65;20.13;;;;;;;;;;5005612;28;20176;-56
2022/03/14 09:30:27;;;;;;;59.15;20.20;;;;;;;;;;5004572;28;20041;-53
2022/03/14 09:32:53;;;;;;;90.72;22.75;;;;;;;;;;5005598;28;20048;-56
2022/03/14 09:35:20;;;;;;;67.85;21.25;;;;;;;;;;5004015;28;20120;-56
2022/03/14 09:37:46;;;;;;;45.55;18.33;;;;;;;;;;5000390;28;20065;-55
2022/03/14 09:40:14;;;;;;;67.50;19.73;;;;;;;;;;5032635;28;20044;-56
2022/03/14 09:42:40;;;;;;;44.90;16.88;;;;;;;;;;4999154;28;20045;-55
2022/03/14 09:45:07;;;;;;;34.50;16.77;;;;;;;;;;5001200;28;20117;-56
2022/03/14 09:47:37;;;;;;;28.00;16.85;;;;;;;;;;4998276;28;20041;-56
2022/03/14 09:50:05;;;;;;;25.83;14.32;;;;;;;;;;5000444;28;20475;-55
2022/03/14 09:52:31;;;;;;;39.95;17.48;;;;;;;;;;4998255;28;20096;-56
2022/03/14 09:54:57;;;;;;;26.42;16.02;;;;;;;;;;4999205;28;20438;-55
2022/03/14 09:57:23;;;;;;;24.98;14.68;;;;;;;;;;4994590;28;20036;-56
2022/03/14 09:59:49;;;;;;;27.48;13.82;;;;;;;;;;4998858;28;20038;-56
2022/03/14 10:02:15;;;;;;;22.27;13.10;;;;;;;;;;4997469;28;20530;-54
2022/03/14 10:04:41;;;;;;;21.80;10.90;;;;;;;;;;4996884;28;20034;-56
2022/03/14 10:07:07;;;;;;;22.52;10.85;;;;;;;;;;4997801;28;20053;-55
2022/03/14 10:09:36;;;;;;;22.73;10.57;;;;;;;;;;4995904;28;20034;-55
2022/03/14 10:12:04;;;;;;;27.27;10.82;;;;;;;;;;4995456;28;20083;-56
2022/03/14 10:14:30;;;;;;;29.50;11.23;;;;;;;;;;4997470;28;20050;-56
2022/03/14 10:16:56;;;;;;;19.13;10.52;;;;;;;;;;4998149;28;20155;-56
2022/03/14 10:19:33;;;;;;;22.67;10.10;;;;;;;;;;4994397;28;20042;-56
2022/03/14 10:22:13;;;;;;;63.33;11.68;;;;;;;;;;4997377;28;20054;-55
2022/03/14 10:24:39;;;;;;;46.72;11.40;;;;;;;;;;4998916;28;20046;-55
2022/03/14 10:27:05;;;;;;;46.80;11.43;;;;;;;;;;4997591;28;20120;-54
2022/03/14 10:29:32;;;;;;;19.55;9.38;;;;;;;;;;5000979;28;20132;-55
2022/03/14 10:31:58;;;;;;;27.13;10.40;;;;;;;;;;4999817;28;20044;-53
2022/03/14 10:34:24;;;;;;;21.42;11.00;;;;;;;;;;4997516;28;20053;-55
2022/03/14 10:36:51;;;;;;;48.08;11.32;;;;;;;;;;4996462;28;20034;-54
2022/03/14 10:39:18;;;;;;;39.67;10.73;;;;;;;;;;4997347;28;20432;-55
2022/03/14 10:42:02;;;;;;;51.33;11.70;;;;;;;;;;4998694;28;20046;-56
2022/03/14 10:44:28;;;;;;;21.67;8.45;;;;;;;;;;4996328;28;20175;-56
2022/03/14 10:46:57;;;;;;;32.10;9.63;;;;;;;;;;5010041;28;20038;-55
2022/03/14 10:49:26;;;;;;;35.90;11.18;;;;;;;;;;4997672;28;20042;-56
2022/03/14 10:51:54;;;;;;;31.38;10.05;;;;;;;;;;4998395;28;20053;-54
2022/03/14 10:54:19;;;;;;;26.27;8.65;;;;;;;;;;4993582;28;20057;-55
2022/03/14 10:57:04;;;;;;;22.05;7.80;;;;;;;;;;4995536;28;20135;-56
2022/03/14 10:59:36;;;;;;;18.75;7.68;;;;;;;;;;4997651;28;20049;-55
2022/03/14 11:02:03;;;;;;;27.97;7.90;;;;;;;;;;4996471;28;20057;-53
2022/03/14 11:04:38;;;;;;;18.23;7.40;;;;;;;;;;4995467;28;20045;-55
2022/03/14 11:07:04;;;;;;;26.83;7.20;;;;;;;;;;4997933;28;20049;-55
2022/03/14 11:09:40;;;;;;;20.52;7.50;;;;;;;;;;4995532;28;20511;-55
2022/03/14 11:12:07;;;;;;;13.90;6.50;;;;;;;;;;4996946;28;20143;-54
2022/03/14 11:14:33;;;;;;;13.65;7.13;;;;;;;;;;4998069;28;20060;-55
2022/03/14 11:17:19;;;;;;;13.82;6.35;;;;;;;;;;4997790;28;20042;-54
2022/03/14 11:19:46;;;;;;;19.35;6.72;;;;;;;;;;4995405;28;20116;-55
2022/03/14 11:22:12;;;;;;;18.63;6.13;;;;;;;;;;4998478;28;20199;-56
2022/03/14 11:24:40;;;;;;;13.15;6.80;;;;;;;;;;4994013;28;20035;-55
2022/03/14 11:27:07;;;;;;;15.70;7.47;;;;;;;;;;4995461;28;21775;-55
2022/03/14 11:29:34;;;;;;;13.60;6.65;;;;;;;;;;4994659;28;20773;-54
2022/03/14 11:32:01;;;;;;;17.58;7.13;;;;;;;;;;4995251;28;20038;-55
2022/03/14 11:34:29;;;;;;;10.65;6.10;;;;;;;;;;4993934;28;20049;-53
2022/03/14 11:36:57;;;;;;;11.35;7.03;;;;;;;;;;5003462;28;20638;-54
2022/03/14 11:39:23;;;;;;;18.27;7.07;;;;;;;;;;4994256;28;20069;-55
2022/03/14 11:41:49;;;;;;;11.27;7.38;;;;;;;;;;4995844;28;20133;-55
2022/03/14 11:44:18;;;;;;;26.38;8.23;;;;;;;;;;4994710;28;20034;-55
2022/03/14 11:46:44;;;;;;;16.15;8.18;;;;;;;;;;4993748;28;20068;-56
2022/03/14 11:49:14;;;;;;;53.30;8.25;;;;;;;;;;4996892;28;20883;-56
2022/03/14 11:51:41;;;;;;;33.28;8.73;;;;;;;;;;4996380;28;20033;-53
2022/03/14 11:54:14;;;;;;;24.95;8.13;;;;;;;;;;4993211;28;20705;-55
2022/03/14 11:56:53;;;;;;;26.08;8.32;;;;;;;;;;4997022;28;20073;-53
2022/03/14 11:59:29;;;;;;;30.35;8.55;;;;;;;;;;4994132;28;20046;-55
2022/03/14 12:02:00;;;;;;;37.45;8.77;;;;;;;;;;4994988;28;20038;-53
2022/03/14 12:04:30;;;;;;;56.40;10.07;;;;;;;;;;4994265;28;20659;-56
2022/03/14 12:06:57;;;;;;;55.35;10.77;;;;;;;;;;4994151;28;20152;-55
2022/03/14 12:09:26;;;;;;;42.67;11.32;;;;;;;;;;4995240;28;20072;-53
2022/03/14 12:11:52;;;;;;;26.63;10.07;;;;;;;;;;5028210;28;20245;-55
2022/03/14 12:14:34;;;;;;;28.55;10.02;;;;;;;;;;4993872;28;20103;-56
2022/03/14 12:17:15;;;;;;;36.92;11.60;;;;;;;;;;4998150;28;20053;-54
2022/03/14 12:19:44;;;;;;;31.25;10.57;;;;;;;;;;4997252;28;20037;-55
2022/03/14 12:22:15;;;;;;;20.40;10.18;;;;;;;;;;4996674;28;20692;-54
2022/03/14 12:24:46;;;;;;;38.97;10.15;;;;;;;;;;4997861;28;20053;-56
2022/03/14 12:27:21;;;;;;;30.75;11.55;;;;;;;;;;4998894;28;20574;-55
2022/03/14 12:29:49;;;;;;;24.80;10.65;;;;;;;;;;5001963;28;20038;-52
2022/03/14 12:32:24;;;;;;;32.30;11.85;;;;;;;;;;5003590;28;20058;-56
2022/03/14 12:35:16;;;;;;;25.27;10.20;;;;;;;;;;4998870;28;20692;-56
2022/03/14 12:37:46;;;;;;;27.60;11.05;;;;;;;;;;4999022;28;20072;-56
2022/03/14 12:40:21;;;;;;;23.27;10.75;;;;;;;;;;5000536;28;20070;-55
2022/03/14 12:42:53;;;;;;;22.05;10.73;;;;;;;;;;5000449;28;20038;-56
2022/03/14 12:45:19;;;;;;;41.47;12.52;;;;;;;;;;4999582;28;20049;-56
2022/03/14 12:47:49;;;;;;;47.88;13.27;;;;;;;;;;5001991;28;20045;-54
2022/03/14 12:50:35;;;;;;;29.13;12.15;;;;;;;;;;5002815;28;20373;-55
2022/03/14 12:53:01;;;;;;;29.13;12.90;;;;;;;;;;5001603;28;20131;-55
2022/03/14 12:55:27;;;;;;;26.70;12.35;;;;;;;;;;5015997;28;20057;-55
2022/03/14 12:57:53;;;;;;;32.05;13.02;;;;;;;;;;4998697;28;20046;-56
2022/03/14 13:00:19;;;;;;;23.30;13.00;;;;;;;;;;4999871;28;20046;-55
2022/03/14 13:02:46;;;;;;;27.13;14.25;;;;;;;;;;4998891;28;20076;-57
2022/03/14 13:05:18;;;;;;;72.90;16.92;;;;;;;;;;5000831;28;20074;-57
2022/03/14 13:07:44;;;;;;;59.25;15.80;;;;;;;;;;5029306;28;20049;-55
2022/03/14 13:10:09;;;;;;;41.78;16.40;;;;;;;;;;5000679;28;20369;-55
2022/03/14 13:12:35;;;;;;;58.20;16.45;;;;;;;;;;5000412;28;20579;-57
2022/03/14 13:15:11;;;;;;;54.47;17.45;;;;;;;;;;5001568;28;20038;-57
2022/03/14 13:17:45;;;;;;;42.83;17.77;;;;;;;;;;4998635;28;20068;-56
2022/03/14 13:20:27;;;;;;;55.88;17.45;;;;;;;;;;5000521;28;20050;-56
2022/03/14 13:22:55;;;;;;;55.72;18.83;;;;;;;;;;5000074;28;20097;-56
2022/03/14 13:25:31;;;;;;;41.28;17.33;;;;;;;;;;5001158;28;20049;-57
2022/03/14 13:27:58;;;;;;;46.45;18.17;;;;;;;;;;4996176;28;20038;-56
2022/03/14 13:30:24;;;;;;;48.42;17.17;;;;;;;;;;4998482;28;20111;-56
2022/03/14 13:32:50;;;;;;;63.55;15.63;;;;;;;;;;5006118;28;20129;-54
2022/03/14 13:35:16;;;;;;;39.20;16.25;;;;;;;;;;4998370;28;20058;-55
2022/03/14 13:37:42;;;;;;;57.55;17.08;;;;;;;;;;4994711;28;20038;-57
2022/03/14 13:40:16;;;;;;;42.92;15.63;;;;;;;;;;4999127;28;20041;-53
2022/03/14 13:42:42;;;;;;;42.30;17.17;;;;;;;;;;5008534;28;20632;-56
2022/03/14 13:45:08;;;;;;;44.03;15.98;;;;;;;;;;4997512;28;20422;-56
2022/03/14 13:47:34;;;;;;;28.58;15.13;;;;;;;;;;4996182;28;20085;-55
2022/03/14 13:50:01;;;;;;;32.28;14.63;;;;;;;;;;4997783;28;20121;-55
2022/03/14 13:52:27;;;;;;;21.77;13.75;;;;;;;;;;4996948;28;20049;-56
2022/03/14 13:54:53;;;;;;;27.08;15.52;;;;;;;;;;4997721;28;20050;-57
2022/03/14 13:57:23;;;;;;;29.65;14.45;;;;;;;;;;5000844;28;20037;-55
2022/03/14 13:59:51;;;;;;;28.45;14.38;;;;;;;;;;5001309;28;20053;-54
2022/03/14 14:02:21;;;;;;;32.50;14.77;;;;;;;;;;5000130;28;20123;-57
2022/03/14 14:04:48;;;;;;;27.23;15.52;;;;;;;;;;5001175;28;20050;-56
2022/03/14 14:07:14;;;;;;;27.10;13.70;;;;;;;;;;5002471;28;20175;-55
2022/03/14 14:09:43;;;;;;;26.75;14.65;;;;;;;;;;5002329;28;20503;-56
2022/03/14 14:12:18;;;;;;;27.98;13.85;;;;;;;;;;5004387;28;20050;-57
2022/03/14 14:14:54;;;;;;;30.90;14.77;;;;;;;;;;5003944;28;20058;-56
2022/03/14 14:17:21;;;;;;;21.88;13.80;;;;;;;;;;5003079;28;20033;-56
2022/03/14 14:20:03;;;;;;;26.30;14.27;;;;;;;;;;4999808;28;20037;-56
2022/03/14 14:22:33;;;;;;;24.35;14.00;;;;;;;;;;4998111;28;20092;-56
2022/03/14 14:24:59;;;;;;;23.05;14.10;;;;;;;;;;4999727;28;20056;-56
2022/03/14 14:27:29;;;;;;;26.65;14.32;;;;;;;;;;5000766;28;20038;-54